sensor_id;sensor_type;location;lat;lon;timestamp;pressure;altitude;pressure_sealevel;temperature;humidity
62418;BME280;48456;54.242;10.280;2023-05-10T00:00:09;100792.94;;;11.26;100.00
62418;BME280;48456;54.242;10.280;2023-05-10T00:02:36;100787.66;;;11.23;100.00
62418;BME280;48456;54.242;10.280;2023-05-10T00:05:03;100781.53;;;11.20;100.00
62418;BME280;48456;54.242;10.280;2023-05-10T00:07:29;100787.75;;;11.09;100.00
62418;BME280;48456;54.242;10.280;2023-05-10T00:09:55;100785.16;;;11.08;100.00
62418;BME280;48456;54.242;10.280;2023-05-10T00:12:22;100772.78;;;11.05;100.00
62418;BME280;48456;54.242;10.280;2023-05-10T00:14:48;100787.81;;;11.01;100.00
62418;BME280;48456;54.242;10.280;2023-05-10T00:17:15;100778.16;;;10.96;100.00
62418;BME280;48456;54.242;10.280;2023-05-10T00:19:41;100774.59;;;10.98;100.00
62418;BME280;48456;54.242;10.280;2023-05-10T00:22:08;100766.72;;;10.94;100.00
62418;BME280;48456;54.242;10.280;2023-05-10T00:24:34;100771.09;;;10.95;100.00
62418;BME280;48456;54.242;10.280;2023-05-10T00:27:00;100768.47;;;10.90;100.00
62418;BME280;48456;54.242;10.280;2023-05-10T00:29:27;100769.38;;;10.89;100.00
62418;BME280;48456;54.242;10.280;2023-05-10T00:31:54;100766.72;;;10.89;100.00
62418;BME280;48456;54.242;10.280;2023-05-10T00:34:21;100758.78;;;10.86;100.00
62418;BME280;48456;54.242;10.280;2023-05-10T00:36:47;100764.97;;;10.83;100.00
62418;BME280;48456;54.242;10.280;2023-05-10T00:39:13;100764.13;;;10.81;100.00
62418;BME280;48456;54.242;10.280;2023-05-10T00:41:40;100758.84;;;10.81;100.00
62418;BME280;48456;54.242;10.280;2023-05-10T00:44:06;100755.34;;;10.76;100.00
62418;BME280;48456;54.242;10.280;2023-05-10T00:46:32;100755.34;;;10.74;100.00
62418;BME280;48456;54.242;10.280;2023-05-10T00:48:59;100755.38;;;10.66;100.00
62418;BME280;48456;54.242;10.280;2023-05-10T00:51:25;100748.34;;;10.64;100.00
62418;BME280;48456;54.242;10.280;2023-05-10T00:53:52;100743.94;;;10.64;100.00
62418;BME280;48456;54.242;10.280;2023-05-10T00:56:18;100738.66;;;10.63;100.00
62418;BME280;48456;54.242;10.280;2023-05-10T00:58:46;100738.63;;;10.66;100.00
62418;BME280;48456;54.242;10.280;2023-05-10T01:01:12;100733.38;;;10.58;100.00
62418;BME280;48456;54.242;10.280;2023-05-10T01:03:39;100733.41;;;10.55;100.00
62418;BME280;48456;54.242;10.280;2023-05-10T01:06:06;100723.69;;;10.56;100.00
62418;BME280;48456;54.242;10.280;2023-05-10T01:08:33;100730.78;;;10.52;100.00
62418;BME280;48456;54.242;10.280;2023-05-10T01:11:00;100728.16;;;10.46;100.00
62418;BME280;48456;54.242;10.280;2023-05-10T01:13:30;100715.78;;;10.43;100.00
62418;BME280;48456;54.242;10.280;2023-05-10T01:15:58;100719.34;;;10.40;100.00
62418;BME280;48456;54.242;10.280;2023-05-10T01:18:25;100717.59;;;10.38;100.00
62418;BME280;48456;54.242;10.280;2023-05-10T01:20:56;100720.22;;;10.35;100.00
62418;BME280;48456;54.242;10.280;2023-05-10T01:26:22;100711.44;;;10.31;100.00
62418;BME280;48456;54.242;10.280;2023-05-10T01:34:05;100710.59;;;10.26;100.00
62418;BME280;48456;54.242;10.280;2023-05-10T01:39:11;100708.81;;;10.30;100.00
62418;BME280;48456;54.242;10.280;2023-05-10T01:41:51;100711.44;;;10.30;100.00
62418;BME280;48456;54.242;10.280;2023-05-10T01:44:35;100704.41;;;10.29;100.00
62418;BME280;48456;54.242;10.280;2023-05-10T01:47:10;100711.50;;;10.23;100.00
62418;BME280;48456;54.242;10.280;2023-05-10T01:49:41;100707.06;;;10.25;100.00
62418;BME280;48456;54.242;10.280;2023-05-10T01:52:10;100712.34;;;10.29;100.00
62418;BME280;48456;54.242;10.280;2023-05-10T01:54:42;100713.19;;;10.34;100.00
62418;BME280;48456;54.242;10.280;2023-05-10T01:57:10;100713.19;;;10.37;100.00
62418;BME280;48456;54.242;10.280;2023-05-10T01:59:39;100713.19;;;10.38;100.00
62418;BME280;48456;54.242;10.280;2023-05-10T02:02:08;100710.53;;;10.42;100.00
62418;BME280;48456;54.242;10.280;2023-05-10T02:04:41;100707.91;;;10.38;100.00
62418;BME280;48456;54.242;10.280;2023-05-10T02:07:08;100711.41;;;10.42;100.00
62418;BME280;48456;54.242;10.280;2023-05-10T02:09:34;100713.19;;;10.40;100.00
62418;BME280;48456;54.242;10.280;2023-05-10T02:12:02;100714.09;;;10.36;100.00
62418;BME280;48456;54.242;10.280;2023-05-10T02:14:34;100708.81;;;10.31;100.00
62418;BME280;48456;54.242;10.280;2023-05-10T02:17:01;100700.03;;;10.23;100.00
62418;BME280;48456;54.242;10.280;2023-05-10T02:19:28;100704.47;;;10.21;100.00
62418;BME280;48456;54.242;10.280;2023-05-10T02:21:55;100706.22;;;10.20;100.00
62418;BME280;48456;54.242;10.280;2023-05-10T02:24:21;100700.94;;;10.20;100.00
62418;BME280;48456;54.242;10.280;2023-05-10T02:26:51;100705.31;;;10.20;100.00
62418;BME280;48456;54.242;10.280;2023-05-10T02:29:19;100707.06;;;10.22;100.00
62418;BME280;48456;54.242;10.280;2023-05-10T02:31:46;100703.56;;;10.23;100.00
62418;BME280;48456;54.242;10.280;2023-05-10T02:34:13;100705.34;;;10.17;100.00
62418;BME280;48456;54.242;10.280;2023-05-10T02:36:40;100701.81;;;10.18;100.00
62418;BME280;48456;54.242;10.280;2023-05-10T02:39:07;100703.59;;;10.14;100.00
62418;BME280;48456;54.242;10.280;2023-05-10T02:41:39;100703.63;;;10.12;100.00
62418;BME280;48456;54.242;10.280;2023-05-10T02:44:06;100709.78;;;10.07;100.00
62418;BME280;48456;54.242;10.280;2023-05-10T02:46:34;100713.34;;;10.03;100.00
62418;BME280;48456;54.242;10.280;2023-05-10T02:49:01;100699.28;;;9.88;100.00
62418;BME280;48456;54.242;10.280;2023-05-10T02:51:31;100706.34;;;9.83;100.00
62418;BME280;48456;54.242;10.280;2023-05-10T02:53:58;100701.06;;;9.83;100.00
62418;BME280;48456;54.242;10.280;2023-05-10T02:56:29;100706.34;;;9.80;100.00
62418;BME280;48456;54.242;10.280;2023-05-10T02:58:57;100699.31;;;9.82;100.00
62418;BME280;48456;54.242;10.280;2023-05-10T03:01:24;100701.06;;;9.80;100.00
62418;BME280;48456;54.242;10.280;2023-05-10T03:03:50;100699.34;;;9.69;100.00
62418;BME280;48456;54.242;10.280;2023-05-10T03:06:16;100707.25;;;9.69;100.00
62418;BME280;48456;54.242;10.280;2023-05-10T03:08:43;100698.47;;;9.67;100.00
62418;BME280;48456;54.242;10.280;2023-05-10T03:11:16;100696.72;;;9.63;100.00
62418;BME280;48456;54.242;10.280;2023-05-10T03:16:29;100697.59;;;9.49;100.00
62418;BME280;48456;54.242;10.280;2023-05-10T03:19:01;100697.59;;;9.53;100.00
62418;BME280;48456;54.242;10.280;2023-05-10T03:21:32;100696.72;;;9.44;100.00
62418;BME280;48456;54.242;10.280;2023-05-10T03:23:59;100694.09;;;9.41;100.00
62418;BME280;48456;54.242;10.280;2023-05-10T03:26:29;100695.88;;;9.30;100.00
62418;BME280;48456;54.242;10.280;2023-05-10T03:28:56;100697.63;;;9.28;100.00
62418;BME280;48456;54.242;10.280;2023-05-10T03:31:24;100702.03;;;9.27;100.00
62418;BME280;48456;54.242;10.280;2023-05-10T03:33:52;100699.38;;;9.33;100.00
62418;BME280;48456;54.242;10.280;2023-05-10T03:36:18;100690.59;;;9.31;100.00
62418;BME280;48456;54.242;10.280;2023-05-10T03:38:45;100698.53;;;9.31;100.00
62418;BME280;48456;54.242;10.280;2023-05-10T03:41:11;100695.88;;;9.28;100.00
62418;BME280;48456;54.242;10.280;2023-05-10T03:43:38;100697.66;;;9.25;100.00
62418;BME280;48456;54.242;10.280;2023-05-10T03:46:04;100693.22;;;9.25;100.00
62418;BME280;48456;54.242;10.280;2023-05-10T03:48:34;100694.97;;;9.26;100.00
62418;BME280;48456;54.242;10.280;2023-05-10T03:51:00;100687.97;;;9.28;100.00
62418;BME280;48456;54.242;10.280;2023-05-10T03:53:27;100698.50;;;9.33;100.00
62418;BME280;48456;54.242;10.280;2023-05-10T03:55:53;100702.91;;;9.40;100.00
62418;BME280;48456;54.242;10.280;2023-05-10T03:58:20;100702.91;;;9.45;100.00
62418;BME280;48456;54.242;10.280;2023-05-10T04:00:46;100688.81;;;9.49;100.00
62418;BME280;48456;54.242;10.280;2023-05-10T04:03:13;100698.50;;;9.52;100.00
62418;BME280;48456;54.242;10.280;2023-05-10T04:05:39;100694.06;;;9.55;100.00
62418;BME280;48456;54.242;10.280;2023-05-10T04:08:06;100694.06;;;9.60;100.00
62418;BME280;48456;54.242;10.280;2023-05-10T04:10:32;100693.19;;;9.64;100.00
62418;BME280;48456;54.242;10.280;2023-05-10T04:12:59;100693.16;;;9.72;100.00
62418;BME280;48456;54.242;10.280;2023-05-10T04:15:25;100690.53;;;9.73;100.00
62418;BME280;48456;54.242;10.280;2023-05-10T04:17:54;100688.78;;;9.74;100.00
62418;BME280;48456;54.242;10.280;2023-05-10T04:20:21;100679.03;;;9.85;100.00
62418;BME280;48456;54.242;10.280;2023-05-10T04:22:47;100692.22;;;9.92;100.00
62418;BME280;48456;54.242;10.280;2023-05-10T04:25:13;100688.66;;;10.04;100.00
62418;BME280;48456;54.242;10.280;2023-05-10T04:27:40;100682.47;;;10.08;100.00
62418;BME280;48456;54.242;10.280;2023-05-10T04:30:06;100685.97;;;10.13;100.00
62418;BME280;48456;54.242;10.280;2023-05-10T04:32:33;100687.72;;;10.17;100.00
62418;BME280;48456;54.242;10.280;2023-05-10T04:35:01;100684.16;;;10.20;100.00
62418;BME280;48456;54.242;10.280;2023-05-10T04:37:29;100696.47;;;10.27;100.00
62418;BME280;48456;54.242;10.280;2023-05-10T04:39:56;100687.66;;;10.33;100.00
62418;BME280;48456;54.242;10.280;2023-05-10T04:42:22;100681.47;;;10.34;100.00
62418;BME280;48456;54.242;10.280;2023-05-10T04:44:48;100692.03;;;10.34;100.00
62418;BME280;48456;54.242;10.280;2023-05-10T04:47:15;100684.97;;;10.39;100.00
62418;BME280;48456;54.242;10.280;2023-05-10T04:49:42;100674.41;;;10.45;100.00
62418;BME280;48456;54.242;10.280;2023-05-10T04:52:08;100683.16;;;10.53;100.00
62418;BME280;48456;54.242;10.280;2023-05-10T04:54:35;100681.38;;;10.59;100.00
62418;BME280;48456;54.242;10.280;2023-05-10T04:57:01;100683.09;;;10.61;100.00
62418;BME280;48456;54.242;10.280;2023-05-10T04:59:27;100698.06;;;10.64;100.00
62418;BME280;48456;54.242;10.280;2023-05-10T05:01:54;100688.38;;;10.68;100.00
62418;BME280;48456;54.242;10.280;2023-05-10T05:04:20;100691.84;;;10.74;100.00
62418;BME280;48456;54.242;10.280;2023-05-10T05:06:49;100693.59;;;10.80;100.00
62418;BME280;48456;54.242;10.280;2023-05-10T05:09:18;100695.28;;;10.86;100.00
62418;BME280;48456;54.242;10.280;2023-05-10T05:11:45;100692.63;;;10.90;100.00
62418;BME280;48456;54.242;10.280;2023-05-10T05:14:11;100691.69;;;10.96;100.00
62418;BME280;48456;54.242;10.280;2023-05-10T05:16:37;100701.38;;;11.02;100.00
62418;BME280;48456;54.242;10.280;2023-05-10T05:19:04;100705.69;;;11.11;100.00
62418;BME280;48456;54.242;10.280;2023-05-10T05:21:31;100699.44;;;11.23;100.00
62418;BME280;48456;54.242;10.280;2023-05-10T05:23:58;100699.38;;;11.27;100.00
62418;BME280;48456;54.242;10.280;2023-05-10T05:26:26;100699.34;;;11.32;100.00
62418;BME280;48456;54.242;10.280;2023-05-10T05:28:52;100699.28;;;11.35;100.00
62418;BME280;48456;54.242;10.280;2023-05-10T05:31:20;100694.88;;;11.39;100.00
62418;BME280;48456;54.242;10.280;2023-05-10T05:33:47;100693.94;;;11.44;100.00
62418;BME280;48456;54.242;10.280;2023-05-10T05:36:13;100689.50;;;11.45;100.00
62418;BME280;48456;54.242;10.280;2023-05-10T05:38:39;100691.22;;;11.49;100.00
62418;BME280;48456;54.242;10.280;2023-05-10T05:41:06;100683.25;;;11.54;100.00
62418;BME280;48456;54.242;10.280;2023-05-10T05:43:32;100691.06;;;11.68;100.00
62418;BME280;48456;54.242;10.280;2023-05-10T05:46:02;100695.25;;;11.86;100.00
62418;BME280;48456;54.242;10.280;2023-05-10T05:48:29;100689.88;;;11.95;100.00
62418;BME280;48456;54.242;10.280;2023-05-10T05:50:56;100687.97;;;12.05;100.00
62418;BME280;48456;54.242;10.280;2023-05-10T05:53:22;100693.91;;;12.26;100.00
62418;BME280;48456;54.242;10.280;2023-05-10T05:55:52;100692.09;;;12.31;100.00
62418;BME280;48456;54.242;10.280;2023-05-10T05:58:20;100692.03;;;12.36;100.00
62418;BME280;48456;54.242;10.280;2023-05-10T06:00:47;100687.38;;;12.52;100.00
62418;BME280;48456;54.242;10.280;2023-05-10T06:03:13;100687.84;;;12.82;100.00
62418;BME280;48456;54.242;10.280;2023-05-10T06:05:40;100680.69;;;12.88;100.00
62418;BME280;48456;54.242;10.280;2023-05-10T06:08:06;100687.31;;;13.15;100.00
62418;BME280;48456;54.242;10.280;2023-05-10T06:10:32;100689.88;;;13.20;100.00
62418;BME280;48456;54.242;10.280;2023-05-10T06:12:59;100684.38;;;13.31;100.00
62418;BME280;48456;54.242;10.280;2023-05-10T06:15:26;100682.66;;;13.26;100.00
62418;BME280;48456;54.242;10.280;2023-05-10T06:17:52;100686.38;;;13.18;100.00
62418;BME280;48456;54.242;10.280;2023-05-10T06:20:19;100691.16;;;13.47;100.00
62418;BME280;48456;54.242;10.280;2023-05-10T06:22:45;100680.66;;;13.41;100.00
62418;BME280;48456;54.242;10.280;2023-05-10T06:25:12;100674.50;;;13.39;100.00
62418;BME280;48456;54.242;10.280;2023-05-10T06:27:38;100676.75;;;13.62;100.00
62418;BME280;48456;54.242;10.280;2023-05-10T06:30:05;100677.38;;;13.77;100.00
62418;BME280;48456;54.242;10.280;2023-05-10T06:32:38;100680.41;;;14.02;100.00
62418;BME280;48456;54.242;10.280;2023-05-10T06:35:05;100677.63;;;14.09;100.00
62418;BME280;48456;54.242;10.280;2023-05-10T06:37:31;100677.88;;;13.96;100.00
62418;BME280;48456;54.242;10.280;2023-05-10T06:39:58;100680.06;;;13.75;100.00
62418;BME280;48456;54.242;10.280;2023-05-10T06:42:24;100680.00;;;13.79;100.00
62418;BME280;48456;54.242;10.280;2023-05-10T06:44:51;100680.88;;;13.77;100.00
62418;BME280;48456;54.242;10.280;2023-05-10T06:47:18;100683.47;;;13.82;100.00
62418;BME280;48456;54.242;10.280;2023-05-10T06:49:44;100687.34;;;13.64;100.00
62418;BME280;48456;54.242;10.280;2023-05-10T06:52:11;100686.31;;;13.73;100.00
62418;BME280;48456;54.242;10.280;2023-05-10T06:54:37;100684.56;;;13.72;100.00
62418;BME280;48456;54.242;10.280;2023-05-10T06:57:03;100689.22;;;13.60;100.00
62418;BME280;48456;54.242;10.280;2023-05-10T06:59:41;100691.72;;;13.67;100.00
62418;BME280;48456;54.242;10.280;2023-05-10T07:02:07;100692.63;;;13.67;100.00
62418;BME280;48456;54.242;10.280;2023-05-10T07:04:34;100697.97;;;13.66;100.00
62418;BME280;48456;54.242;10.280;2023-05-10T07:07:00;100694.53;;;13.59;100.00
62418;BME280;48456;54.242;10.280;2023-05-10T07:09:27;100694.31;;;13.71;100.00
62418;BME280;48456;54.242;10.280;2023-05-10T07:11:54;100696.97;;;13.71;100.00
62418;BME280;48456;54.242;10.280;2023-05-10T07:14:20;100691.53;;;13.77;100.00
62418;BME280;48456;54.242;10.280;2023-05-10T07:16:47;100694.69;;;13.97;100.00
62418;BME280;48456;54.242;10.280;2023-05-10T07:19:13;100696.97;;;14.17;100.00
62418;BME280;48456;54.242;10.280;2023-05-10T07:21:40;100686.91;;;14.30;100.00
62418;BME280;48456;54.242;10.280;2023-05-10T07:24:08;100696.50;;;14.39;100.00
62418;BME280;48456;54.242;10.280;2023-05-10T07:26:35;100694.50;;;14.49;100.00
62418;BME280;48456;54.242;10.280;2023-05-10T07:29:01;100688.81;;;14.25;100.00
62418;BME280;48456;54.242;10.280;2023-05-10T07:31:28;100695.06;;;14.24;100.00
62418;BME280;48456;54.242;10.280;2023-05-10T07:33:55;100682.34;;;14.37;100.00
62418;BME280;48456;54.242;10.280;2023-05-10T07:36:21;100681.44;;;14.38;100.00
62418;BME280;48456;54.242;10.280;2023-05-10T07:38:47;100683.31;;;14.33;100.00
62418;BME280;48456;54.242;10.280;2023-05-10T07:41:15;100669.53;;;14.54;100.00
62418;BME280;48456;54.242;10.280;2023-05-10T07:43:41;100671.94;;;14.65;100.00
62418;BME280;48456;54.242;10.280;2023-05-10T07:46:08;100675.53;;;14.63;100.00
62418;BME280;48456;54.242;10.280;2023-05-10T07:48:36;100681.56;;;14.71;100.00
62418;BME280;48456;54.242;10.280;2023-05-10T07:51:03;100686.72;;;14.80;100.00
62418;BME280;48456;54.242;10.280;2023-05-10T07:53:29;100683.91;;;14.87;100.00
62418;BME280;48456;54.242;10.280;2023-05-10T07:55:58;100690.41;;;15.11;100.00
62418;BME280;48456;54.242;10.280;2023-05-10T07:58:25;100686.06;;;15.07;100.00
62418;BME280;48456;54.242;10.280;2023-05-10T08:00:51;100687.97;;;15.02;100.00
62418;BME280;48456;54.242;10.280;2023-05-10T08:03:18;100692.38;;;15.03;100.00
62418;BME280;48456;54.242;10.280;2023-05-10T08:05:44;100691.63;;;14.98;100.00
62418;BME280;48456;54.242;10.280;2023-05-10T08:08:11;100697.25;;;15.23;100.00
62418;BME280;48456;54.242;10.280;2023-05-10T08:10:37;100701.97;;;15.46;100.00
62418;BME280;48456;54.242;10.280;2023-05-10T08:13:03;100698.47;;;15.78;100.00
62418;BME280;48456;54.242;10.280;2023-05-10T08:15:30;100693.88;;;15.83;100.00
62418;BME280;48456;54.242;10.280;2023-05-10T08:17:56;100706.84;;;15.97;100.00
62418;BME280;48456;54.242;10.280;2023-05-10T08:20:23;100696.44;;;16.19;100.00
62418;BME280;48456;54.242;10.280;2023-05-10T08:22:49;100710.97;;;16.39;100.00
62418;BME280;48456;54.242;10.280;2023-05-10T08:25:17;100714.59;;;16.36;100.00
62418;BME280;48456;54.242;10.280;2023-05-10T08:27:43;100715.78;;;16.28;100.00
62418;BME280;48456;54.242;10.280;2023-05-10T08:30:10;100711.06;;;16.66;100.00
62418;BME280;48456;54.242;10.280;2023-05-10T08:32:36;100701.34;;;16.92;100.00
62418;BME280;48456;54.242;10.280;2023-05-10T08:35:04;100702.47;;;17.12;100.00
62418;BME280;48456;54.242;10.280;2023-05-10T08:37:31;100710.50;;;17.12;100.00
62418;BME280;48456;54.242;10.280;2023-05-10T08:39:58;100707.84;;;16.83;100.00
62418;BME280;48456;54.242;10.280;2023-05-10T08:42:25;100710.25;;;16.62;100.00
62418;BME280;48456;54.242;10.280;2023-05-10T08:44:52;100708.97;;;16.46;100.00
62418;BME280;48456;54.242;10.280;2023-05-10T08:47:19;100704.47;;;16.48;100.00
62418;BME280;48456;54.242;10.280;2023-05-10T08:49:47;100696.00;;;16.63;100.00
62418;BME280;48456;54.242;10.280;2023-05-10T08:52:14;100699.97;;;17.07;100.00
62418;BME280;48456;54.242;10.280;2023-05-10T08:54:42;100696.59;;;17.29;100.00
62418;BME280;48456;54.242;10.280;2023-05-10T08:57:10;100699.56;;;17.20;100.00
62418;BME280;48456;54.242;10.280;2023-05-10T08:59:36;100710.88;;;17.28;100.00
62418;BME280;48456;54.242;10.280;2023-05-10T09:02:05;100701.94;;;17.29;100.00
62418;BME280;48456;54.242;10.280;2023-05-10T09:04:32;100711.59;;;17.59;100.00
62418;BME280;48456;54.242;10.280;2023-05-10T09:06:58;100706.75;;;17.18;100.00
62418;BME280;48456;54.242;10.280;2023-05-10T09:09:25;100708.69;;;17.39;100.00
62418;BME280;48456;54.242;10.280;2023-05-10T09:11:52;100708.44;;;17.47;100.00
62418;BME280;48456;54.242;10.280;2023-05-10T09:14:19;100709.47;;;17.43;100.00
62418;BME280;48456;54.242;10.280;2023-05-10T09:16:45;100708.97;;;17.57;100.00
62418;BME280;48456;54.242;10.280;2023-05-10T09:19:13;100714.13;;;17.63;100.00
62418;BME280;48456;54.242;10.280;2023-05-10T09:21:39;100712.81;;;17.50;100.00
62418;BME280;48456;54.242;10.280;2023-05-10T09:24:06;100706.19;;;17.60;100.00
62418;BME280;48456;54.242;10.280;2023-05-10T09:26:33;100707.25;;;17.82;100.00
62418;BME280;48456;54.242;10.280;2023-05-10T09:29:02;100707.31;;;18.04;100.00
62418;BME280;48456;54.242;10.280;2023-05-10T09:31:44;100717.72;;;18.13;100.00
62418;BME280;48456;54.242;10.280;2023-05-10T09:34:17;100711.59;;;18.34;100.00
62418;BME280;48456;54.242;10.280;2023-05-10T09:36:57;100710.19;;;18.47;100.00
62418;BME280;48456;54.242;10.280;2023-05-10T09:39:30;100709.78;;;18.58;100.00
62418;BME280;48456;54.242;10.280;2023-05-10T09:41:57;100709.81;;;18.34;100.00
62418;BME280;48456;54.242;10.280;2023-05-10T09:44:25;100717.53;;;18.42;100.00
62418;BME280;48456;54.242;10.280;2023-05-10T09:46:51;100727.41;;;18.64;100.00
62418;BME280;48456;54.242;10.280;2023-05-10T09:49:19;100730.25;;;18.37;100.00
62418;BME280;48456;54.242;10.280;2023-05-10T09:51:46;100726.94;;;18.52;100.00
62418;BME280;48456;54.242;10.280;2023-05-10T09:54:14;100734.91;;;18.06;100.00
62418;BME280;48456;54.242;10.280;2023-05-10T09:56:41;100720.59;;;18.55;100.00
62418;BME280;48456;54.242;10.280;2023-05-10T09:59:08;100712.47;;;18.80;100.00
62418;BME280;48456;54.242;10.280;2023-05-10T10:01:35;100723.53;;;19.17;100.00
62418;BME280;48456;54.242;10.280;2023-05-10T10:04:05;100720.78;;;19.19;100.00
62418;BME280;48456;54.242;10.280;2023-05-10T10:06:38;100719.56;;;19.05;100.00
62418;BME280;48456;54.242;10.280;2023-05-10T10:09:05;100728.09;;;19.15;100.00
62418;BME280;48456;54.242;10.280;2023-05-10T10:11:34;100729.25;;;19.30;100.00
62418;BME280;48456;54.242;10.280;2023-05-10T10:14:01;100729.59;;;19.64;100.00
62418;BME280;48456;54.242;10.280;2023-05-10T10:16:31;100724.22;;;19.64;100.00
62418;BME280;48456;54.242;10.280;2023-05-10T10:18:58;100730.00;;;19.76;100.00
62418;BME280;48456;54.242;10.280;2023-05-10T10:21:24;100737.66;;;19.64;100.00
62418;BME280;48456;54.242;10.280;2023-05-10T10:23:51;100735.09;;;19.61;100.00
62418;BME280;48456;54.242;10.280;2023-05-10T10:26:18;100734.38;;;19.99;100.00
62418;BME280;48456;54.242;10.280;2023-05-10T10:34:29;100739.84;;;19.96;100.00
62418;BME280;48456;54.242;10.280;2023-05-10T10:36:56;100734.44;;;19.77;100.00
62418;BME280;48456;54.242;10.280;2023-05-10T10:39:23;100736.66;;;20.08;100.00
62418;BME280;48456;54.242;10.280;2023-05-10T10:41:56;100743.25;;;20.20;100.00
62418;BME280;48456;54.242;10.280;2023-05-10T10:49:51;100740.88;;;19.72;100.00
62418;BME280;48456;54.242;10.280;2023-05-10T10:57:28;100736.69;;;19.86;100.00
62418;BME280;48456;54.242;10.280;2023-05-10T11:02:43;100749.53;;;20.00;100.00
62418;BME280;48456;54.242;10.280;2023-05-10T11:07:51;100739.78;;;20.18;100.00
62418;BME280;48456;54.242;10.280;2023-05-10T11:10:21;100744.78;;;20.26;100.00
62418;BME280;48456;54.242;10.280;2023-05-10T11:13:07;100739.22;;;20.31;100.00
62418;BME280;48456;54.242;10.280;2023-05-10T11:15:40;100749.25;;;19.65;100.00
62418;BME280;48456;54.242;10.280;2023-05-10T11:18:16;100754.22;;;19.53;100.00
62418;BME280;48456;54.242;10.280;2023-05-10T11:20:43;100747.91;;;19.75;100.00
62418;BME280;48456;54.242;10.280;2023-05-10T11:23:13;100751.00;;;19.66;100.00
62418;BME280;48456;54.242;10.280;2023-05-10T11:25:42;100757.84;;;19.73;100.00
62418;BME280;48456;54.242;10.280;2023-05-10T11:28:10;100754.41;;;19.90;100.00
62418;BME280;48456;54.242;10.280;2023-05-10T11:30:40;100764.34;;;19.88;100.00
62418;BME280;48456;54.242;10.280;2023-05-10T11:33:07;100762.25;;;19.53;100.00
62418;BME280;48456;54.242;10.280;2023-05-10T11:35:38;100761.97;;;19.59;100.00
62418;BME280;48456;54.242;10.280;2023-05-10T11:38:08;100761.38;;;19.53;100.00
62418;BME280;48456;54.242;10.280;2023-05-10T11:40:35;100758.47;;;19.37;100.00
62418;BME280;48456;54.242;10.280;2023-05-10T11:43:02;100761.78;;;19.43;100.00
62418;BME280;48456;54.242;10.280;2023-05-10T11:45:31;100755.13;;;19.31;100.00
62418;BME280;48456;54.242;10.280;2023-05-10T11:47:58;100758.22;;;18.98;100.00
62418;BME280;48456;54.242;10.280;2023-05-10T11:50:25;100761.59;;;18.81;100.00
62418;BME280;48456;54.242;10.280;2023-05-10T11:52:55;100767.91;;;18.78;100.00
62418;BME280;48456;54.242;10.280;2023-05-10T11:55:22;100758.97;;;18.79;100.00
62418;BME280;48456;54.242;10.280;2023-05-10T11:57:53;100769.31;;;18.89;100.00
62418;BME280;48456;54.242;10.280;2023-05-10T12:00:20;100773.28;;;18.78;100.00
62418;BME280;48456;54.242;10.280;2023-05-10T12:02:47;100776.34;;;18.45;100.00
62418;BME280;48456;54.242;10.280;2023-05-10T12:05:14;100774.41;;;18.49;100.00
62418;BME280;48456;54.242;10.280;2023-05-10T12:07:40;100783.19;;;18.52;100.00
62418;BME280;48456;54.242;10.280;2023-05-10T12:10:08;100778.59;;;18.32;100.00
62418;BME280;48456;54.242;10.280;2023-05-10T12:12:36;100784.19;;;18.26;100.00
62418;BME280;48456;54.242;10.280;2023-05-10T12:15:03;100782.78;;;18.15;100.00
62418;BME280;48456;54.242;10.280;2023-05-10T12:17:29;100787.03;;;18.21;100.00
62418;BME280;48456;54.242;10.280;2023-05-10T12:20:12;100794.13;;;18.22;100.00
62418;BME280;48456;54.242;10.280;2023-05-10T12:22:40;100786.94;;;18.24;100.00
62418;BME280;48456;54.242;10.280;2023-05-10T12:25:07;100792.44;;;18.20;100.00
62418;BME280;48456;54.242;10.280;2023-05-10T12:27:34;100802.66;;;18.34;100.00
62418;BME280;48456;54.242;10.280;2023-05-10T12:30:01;100808.94;;;18.33;100.00
62418;BME280;48456;54.242;10.280;2023-05-10T12:32:38;100819.72;;;18.04;100.00
62418;BME280;48456;54.242;10.280;2023-05-10T12:35:05;100819.09;;;17.70;100.00
62418;BME280;48456;54.242;10.280;2023-05-10T12:37:31;100833.81;;;17.30;100.00
62418;BME280;48456;54.242;10.280;2023-05-10T12:40:01;100848.16;;;16.95;100.00
62418;BME280;48456;54.242;10.280;2023-05-10T12:42:29;100846.97;;;16.75;100.00
62418;BME280;48456;54.242;10.280;2023-05-10T12:44:55;100857.38;;;16.55;100.00
62418;BME280;48456;54.242;10.280;2023-05-10T12:47:22;100857.25;;;16.26;100.00
62418;BME280;48456;54.242;10.280;2023-05-10T12:49:49;100862.19;;;16.08;100.00
62418;BME280;48456;54.242;10.280;2023-05-10T12:52:15;100873.44;;;15.47;100.00
62418;BME280;48456;54.242;10.280;2023-05-10T12:54:41;100872.69;;;15.01;100.00
62418;BME280;48456;54.242;10.280;2023-05-10T12:57:08;100878.53;;;14.74;100.00
62418;BME280;48456;54.242;10.280;2023-05-10T12:59:34;100894.22;;;14.42;100.00
62418;BME280;48456;54.242;10.280;2023-05-10T13:02:03;100889.97;;;14.34;100.00
62418;BME280;48456;54.242;10.280;2023-05-10T13:04:29;100892.69;;;14.31;100.00
62418;BME280;48456;54.242;10.280;2023-05-10T13:06:56;100897.13;;;14.28;100.00